Time;durP1;ratioP1;P1;durP2;ratioP2;P2;SDS_P1;SDS_P2;PMS_P1;PMS_P2;Temp;Humidity;BMP_temperature;BMP_pressure;BME280_temperature;BME280_humidity;BME280_pressure;Samples;Min_cycle;Max_cycle;Signal;HPM_P1;HPM_P2
2022/01/27 00:00:42;;;;;;;43.17;22.73;;;3.70;99.90;;;;;;5000418;28;20222;-69
2022/01/27 00:03:29;;;;;;;36.87;20.67;;;3.70;99.90;;;;;;4998412;28;20289;-69
2022/01/27 00:06:00;;;;;;;40.37;20.40;;;3.60;99.90;;;;;;5000023;28;20202;-72
2022/01/27 00:08:30;;;;;;;43.53;20.73;;;3.50;99.90;;;;;;4992524;28;20208;-73
2022/01/27 00:11:02;;;;;;;40.73;21.10;;;3.60;99.90;;;;;;5001193;28;20196;-68
2022/01/27 00:13:32;;;;;;;43.17;21.27;;;3.60;99.90;;;;;;4987327;28;20295;-73
2022/01/27 00:16:12;;;;;;;46.10;22.37;;;3.50;99.90;;;;;;4994750;28;20235;-71
2022/01/27 00:18:39;;;;;;;40.43;20.77;;;3.50;99.90;;;;;;4996957;28;20296;-69
2022/01/27 00:21:04;;;;;;;39.57;19.63;;;3.70;99.90;;;;;;4999377;28;20218;-70
2022/01/27 00:23:30;;;;;;;39.43;19.73;;;3.60;99.90;;;;;;4989586;28;20200;-65
2022/01/27 00:25:55;;;;;;;36.27;20.30;;;3.70;99.90;;;;;;4986992;28;20194;-65
2022/01/27 00:28:21;;;;;;;39.60;19.43;;;3.60;99.90;;;;;;4987330;28;20207;-65
2022/01/27 00:30:46;;;;;;;38.03;20.83;;;3.60;99.90;;;;;;4993490;28;20185;-65
2022/01/27 00:33:12;;;;;;;37.73;20.70;;;3.70;99.90;;;;;;4994933;28;20554;-64
2022/01/27 00:35:37;;;;;;;35.33;19.97;;;3.60;99.90;;;;;;4994468;28;20208;-64
2022/01/27 00:38:03;;;;;;;37.23;17.87;;;3.70;99.90;;;;;;4998329;28;20204;-66
2022/01/27 00:40:30;;;;;;;33.17;19.80;;;3.70;99.90;;;;;;4973799;28;20233;-65
2022/01/27 00:42:55;;;;;;;42.87;19.43;;;3.60;99.90;;;;;;5001442;28;20188;-64
2022/01/27 00:45:23;;;;;;;38.37;18.83;;;3.60;99.90;;;;;;4997995;28;20200;-64
2022/01/27 00:47:49;;;;;;;37.90;20.53;;;3.60;99.90;;;;;;4996192;28;20200;-64
2022/01/27 00:50:17;;;;;;;36.00;17.90;;;3.70;99.90;;;;;;4991332;28;20212;-65
2022/01/27 00:52:47;;;;;;;33.10;18.37;;;3.70;99.90;;;;;;4995413;28;20199;-65
2022/01/27 00:55:14;;;;;;;31.57;17.47;;;3.60;99.90;;;;;;4988153;28;20215;-64
2022/01/27 01:00:33;;;;;;;35.47;17.77;;;3.70;99.90;;;;;;4987605;28;20243;-65
2022/01/27 01:07:57;;;;;;;36.60;19.40;;;3.60;99.90;;;;;;4997149;28;20192;-65
2022/01/27 01:10:44;;;;;;;35.77;18.47;;;3.70;99.90;;;;;;4988371;28;20208;-65
2022/01/27 01:15:52;;;;;;;27.70;15.07;;;3.70;99.90;;;;;;4993522;28;20241;-65
2022/01/27 01:19:08;;;;;;;27.37;14.67;;;3.70;99.90;;;;;;4995475;28;20204;-65
2022/01/27 01:21:27;;;;;;;30.07;15.80;;;3.70;99.90;;;;;;4983919;28;20228;-65
2022/01/27 01:34:32;;;;;;;29.23;16.47;;;3.70;99.90;;;;;;4983529;28;20212;-65
2022/01/27 01:37:02;;;;;;;27.87;16.30;;;3.70;99.90;;;;;;4989022;28;20215;-66
2022/01/27 01:39:33;;;;;;;31.80;15.03;;;3.70;99.90;;;;;;4983765;28;20231;-66
2022/01/27 01:42:01;;;;;;;29.47;14.60;;;3.70;99.90;;;;;;4981724;28;20232;-65
2022/01/27 01:44:26;;;;;;;33.97;13.93;;;3.70;99.90;;;;;;4982705;28;20211;-65
2022/01/27 01:46:53;;;;;;;27.73;15.70;;;3.70;99.90;;;;;;4995821;28;20196;-65
2022/01/27 01:49:19;;;;;;;26.13;14.73;;;3.80;99.90;;;;;;4982289;28;20323;-65
2022/01/27 01:51:45;;;;;;;28.03;15.10;;;3.80;99.90;;;;;;4998725;28;20650;-64
2022/01/27 01:54:12;;;;;;;25.30;15.13;;;3.80;99.90;;;;;;4992293;28;20239;-65
2022/01/27 01:56:39;;;;;;;29.23;14.60;;;3.80;99.90;;;;;;4998229;28;20198;-65
2022/01/27 01:59:06;;;;;;;27.33;14.73;;;3.70;99.90;;;;;;4991283;28;20219;-65
2022/01/27 02:01:33;;;;;;;33.60;16.10;;;3.80;99.90;;;;;;4998618;28;20224;-65
2022/01/27 02:04:04;;;;;;;22.10;14.23;;;3.70;99.90;;;;;;4989445;28;20196;-65
2022/01/27 02:06:35;;;;;;;22.00;13.07;;;3.80;99.90;;;;;;4987506;28;20184;-65
2022/01/27 02:19:44;;;;;;;21.23;13.20;;;3.90;99.90;;;;;;4977720;28;20226;-65
2022/01/27 02:22:09;;;;;;;25.73;13.43;;;3.90;99.90;;;;;;4989990;28;20227;-64
2022/01/27 02:24:36;;;;;;;23.80;14.03;;;3.90;99.90;;;;;;4982306;28;20678;-65
2022/01/27 02:27:03;;;;;;;21.93;14.00;;;4.00;99.90;;;;;;4999722;28;20197;-64
2022/01/27 02:29:29;;;;;;;28.07;12.70;;;3.90;99.90;;;;;;4983039;28;20209;-65
2022/01/27 02:31:56;;;;;;;19.53;12.17;;;3.90;99.90;;;;;;4995194;28;20211;-65
2022/01/27 02:34:23;;;;;;;17.97;12.83;;;4.10;99.90;;;;;;4992009;28;20212;-65
2022/01/27 02:36:49;;;;;;;21.00;13.70;;;4.00;99.90;;;;;;4994525;28;20218;-64
2022/01/27 02:39:16;;;;;;;21.77;14.17;;;4.00;99.90;;;;;;4995479;28;20229;-64
2022/01/27 02:41:48;;;;;;;19.97;12.47;;;4.10;99.90;;;;;;4999447;28;20235;-65
2022/01/27 02:44:27;;;;;;;19.40;12.27;;;4.00;99.90;;;;;;4971367;28;20201;-64
2022/01/27 02:46:52;;;;;;;18.27;12.30;;;4.10;99.90;;;;;;4995528;28;20190;-64
2022/01/27 02:49:18;;;;;;;19.77;14.13;;;4.10;99.90;;;;;;4998256;28;20200;-64
2022/01/27 02:51:44;;;;;;;22.97;13.47;;;4.00;99.90;;;;;;4985747;28;20257;-64
2022/01/27 02:54:09;;;;;;;20.90;14.07;;;4.00;99.90;;;;;;4990910;28;20211;-64
2022/01/27 02:56:38;;;;;;;19.30;12.43;;;4.00;99.90;;;;;;4999848;28;20200;-64
2022/01/27 02:59:04;;;;;;;19.37;12.60;;;4.10;99.90;;;;;;4991437;28;20208;-64
2022/01/27 03:01:29;;;;;;;19.70;13.07;;;4.00;99.90;;;;;;4995644;28;20216;-63
2022/01/27 03:03:55;;;;;;;21.13;12.57;;;4.10;99.90;;;;;;4991015;28;20292;-64
2022/01/27 03:06:20;;;;;;;21.13;12.80;;;4.10;99.90;;;;;;4990994;28;20575;-64
2022/01/27 03:08:46;;;;;;;20.60;13.20;;;4.10;99.90;;;;;;4989807;28;20216;-63
2022/01/27 03:11:16;;;;;;;18.20;12.47;;;4.10;99.90;;;;;;4989151;28;20288;-64
2022/01/27 03:13:42;;;;;;;18.87;12.90;;;4.10;99.90;;;;;;4990771;28;20294;-64
2022/01/27 03:16:09;;;;;;;18.60;12.67;;;4.10;99.90;;;;;;4994629;28;20281;-64
2022/01/27 03:18:36;;;;;;;19.83;11.97;;;4.00;99.90;;;;;;4986127;28;20200;-64
2022/01/27 03:21:03;;;;;;;21.00;13.40;;;4.10;99.90;;;;;;4993744;28;20212;-65
2022/01/27 03:23:29;;;;;;;16.47;11.70;;;4.00;99.90;;;;;;4985504;28;20264;-65
2022/01/27 03:25:54;;;;;;;18.27;12.20;;;4.10;99.90;;;;;;4991698;28;20622;-65
2022/01/27 03:28:24;;;;;;;17.83;12.30;;;4.10;99.90;;;;;;4988354;28;20203;-65
2022/01/27 03:30:50;;;;;;;16.60;11.63;;;4.20;99.90;;;;;;4986476;28;20197;-66
2022/01/27 03:33:15;;;;;;;17.53;12.70;;;4.20;99.90;;;;;;4984850;28;20216;-65
2022/01/27 03:35:40;;;;;;;22.17;12.77;;;4.20;99.90;;;;;;4989633;28;20219;-65
2022/01/27 03:38:06;;;;;;;19.23;12.57;;;4.20;99.90;;;;;;4982537;28;20255;-64
2022/01/27 03:40:31;;;;;;;20.67;12.47;;;4.20;99.90;;;;;;4987387;28;20303;-64
2022/01/27 03:43:05;;;;;;;19.30;12.60;;;4.30;99.90;;;;;;4993532;28;20645;-63
2022/01/27 03:45:31;;;;;;;20.93;12.90;;;4.30;99.90;;;;;;4988708;28;20193;-64
2022/01/27 03:47:57;;;;;;;19.03;12.73;;;4.20;99.90;;;;;;4995801;28;20258;-64
2022/01/27 03:50:22;;;;;;;17.67;12.57;;;4.20;99.90;;;;;;4987684;28;20790;-66
2022/01/27 03:52:48;;;;;;;17.07;12.03;;;4.20;99.90;;;;;;4996452;28;20705;-66
2022/01/27 03:55:13;;;;;;;16.97;12.80;;;4.20;99.90;;;;;;4996403;28;20197;-65
2022/01/27 03:57:39;;;;;;;18.17;13.53;;;4.20;99.90;;;;;;4995383;28;20200;-65
2022/01/27 04:00:06;;;;;;;16.90;11.20;;;4.30;99.90;;;;;;4996330;28;20215;-65
2022/01/27 04:02:35;;;;;;;18.10;12.00;;;4.30;99.90;;;;;;5000953;28;20235;-65
2022/01/27 04:05:00;;;;;;;21.30;12.70;;;4.30;99.90;;;;;;4988935;28;20185;-65
2022/01/27 04:07:26;;;;;;;20.60;12.30;;;4.30;99.90;;;;;;4989374;28;20204;-65
2022/01/27 04:09:51;;;;;;;17.90;12.57;;;4.20;99.90;;;;;;4994662;28;20523;-65
2022/01/27 04:12:17;;;;;;;19.60;12.87;;;4.30;99.90;;;;;;4991478;28;20288;-65
2022/01/27 04:14:43;;;;;;;18.17;12.70;;;4.20;99.90;;;;;;4994266;28;20196;-65
2022/01/27 04:17:09;;;;;;;16.13;10.93;;;4.30;99.90;;;;;;4994067;28;20214;-65
2022/01/27 04:19:34;;;;;;;18.33;10.90;;;4.30;99.90;;;;;;4990820;28;20192;-65
2022/01/27 04:22:00;;;;;;;15.73;11.23;;;4.40;99.90;;;;;;4995979;28;20281;-64
2022/01/27 04:24:26;;;;;;;19.83;11.83;;;4.30;99.90;;;;;;4993423;28;20195;-64
2022/01/27 04:26:59;;;;;;;14.50;10.60;;;4.30;99.90;;;;;;4996684;28;20807;-64
2022/01/27 04:29:25;;;;;;;14.63;11.67;;;4.40;99.90;;;;;;4988573;28;20230;-64
2022/01/27 04:31:52;;;;;;;16.20;10.87;;;4.40;99.90;;;;;;4991568;28;20240;-65
2022/01/27 04:34:17;;;;;;;14.23;9.50;;;4.40;99.90;;;;;;4992777;28;20196;-64
2022/01/27 04:36:44;;;;;;;16.47;9.47;;;4.50;99.90;;;;;;4994387;28;20223;-64
2022/01/27 04:41:49;;;;;;;15.60;9.70;;;4.50;99.90;;;;;;5000794;28;20264;-63
2022/01/27 04:44:26;;;;;;;14.50;9.93;;;4.50;99.90;;;;;;4994631;28;20389;-64
2022/01/27 04:47:00;;;;;;;12.07;8.43;;;4.50;99.90;;;;;;4999760;28;20192;-65
2022/01/27 04:49:26;;;;;;;10.63;8.67;;;4.50;99.90;;;;;;4991783;28;20188;-64
2022/01/27 04:51:52;;;;;;;13.60;9.53;;;4.50;99.90;;;;;;4995211;28;20540;-64
2022/01/27 04:54:24;;;;;;;15.60;10.50;;;4.50;99.90;;;;;;4994443;28;20192;-64
2022/01/27 04:56:50;;;;;;;15.57;10.13;;;4.50;99.90;;;;;;4971361;28;20241;-64
2022/01/27 04:59:21;;;;;;;15.30;10.03;;;4.50;99.90;;;;;;4990791;28;20193;-65
2022/01/27 05:01:55;;;;;;;11.23;8.40;;;4.50;99.90;;;;;;4998474;28;20216;-65
2022/01/27 05:04:24;;;;;;;12.57;8.30;;;4.50;99.90;;;;;;4991605;28;20195;-64
2022/01/27 05:06:51;;;;;;;10.90;8.47;;;4.50;99.90;;;;;;4990454;28;20565;-66
2022/01/27 05:09:16;;;;;;;11.67;7.57;;;4.40;99.90;;;;;;4993480;28;20535;-66
2022/01/27 05:11:52;;;;;;;10.47;7.73;;;4.50;99.90;;;;;;4997804;28;20206;-66
2022/01/27 05:14:22;;;;;;;9.57;7.13;;;4.50;99.90;;;;;;4984659;28;20216;-65
2022/01/27 05:16:48;;;;;;;9.97;8.23;;;4.60;99.90;;;;;;4991198;28;20615;-65
2022/01/27 05:19:14;;;;;;;11.27;7.77;;;4.50;99.90;;;;;;4992190;28;20281;-65
2022/01/27 05:21:41;;;;;;;10.20;7.77;;;4.60;99.90;;;;;;4989193;28;20335;-66
2022/01/27 05:24:07;;;;;;;12.33;8.23;;;4.50;99.90;;;;;;4990378;28;20200;-65
2022/01/27 05:26:33;;;;;;;12.93;9.20;;;4.50;99.90;;;;;;4991868;28;20223;-65
2022/01/27 05:28:59;;;;;;;11.17;8.47;;;4.50;99.90;;;;;;4992898;28;20558;-66
2022/01/27 05:31:25;;;;;;;10.60;8.90;;;4.50;99.90;;;;;;4999805;28;20204;-64
2022/01/27 05:33:50;;;;;;;11.20;7.87;;;4.50;99.90;;;;;;4986850;28;20363;-64
2022/01/27 05:36:16;;;;;;;12.00;8.50;;;4.50;99.90;;;;;;4995101;28;20224;-64
2022/01/27 05:38:41;;;;;;;9.53;8.00;;;4.50;99.90;;;;;;4989126;28;20681;-64
2022/01/27 05:41:07;;;;;;;12.13;8.20;;;4.50;99.90;;;;;;4991728;28;20236;-63
2022/01/27 05:43:33;;;;;;;9.73;8.20;;;4.40;99.90;;;;;;4987259;28;20247;-63
2022/01/27 05:45:59;;;;;;;11.63;8.57;;;4.30;99.90;;;;;;4994559;28;20206;-64
2022/01/27 05:48:24;;;;;;;12.63;9.73;;;4.40;99.90;;;;;;4984418;28;20214;-64
2022/01/27 05:50:50;;;;;;;9.67;7.90;;;4.50;99.90;;;;;;4991394;28;20646;-62
2022/01/27 05:53:16;;;;;;;9.97;8.37;;;4.50;99.90;;;;;;4987667;28;20203;-64
2022/01/27 05:55:41;;;;;;;11.57;8.40;;;4.50;99.90;;;;;;4991295;28;20313;-64
2022/01/27 05:58:07;;;;;;;14.27;9.63;;;4.50;99.90;;;;;;4989192;28;20263;-64
2022/01/27 06:00:33;;;;;;;13.97;9.13;;;4.40;99.90;;;;;;4993287;28;20300;-64
2022/01/27 06:02:58;;;;;;;9.73;8.70;;;4.30;99.90;;;;;;4988935;28;20229;-63
2022/01/27 06:05:24;;;;;;;11.10;9.10;;;4.40;99.90;;;;;;4992260;28;20892;-64
2022/01/27 06:07:50;;;;;;;12.10;9.53;;;4.30;99.90;;;;;;4991608;28;20304;-63
2022/01/27 06:10:15;;;;;;;13.23;9.63;;;4.30;99.90;;;;;;4991901;28;20800;-64
2022/01/27 06:12:53;;;;;;;13.70;9.60;;;4.30;99.90;;;;;;4993185;28;20306;-65
2022/01/27 06:15:26;;;;;;;15.87;10.90;;;4.40;99.90;;;;;;5002403;28;20210;-60
2022/01/27 06:17:52;;;;;;;13.67;10.60;;;4.40;99.90;;;;;;4989934;28;20531;-60
2022/01/27 06:20:18;;;;;;;12.97;10.37;;;4.50;99.90;;;;;;4992753;28;20258;-60
2022/01/27 06:22:44;;;;;;;13.80;11.60;;;4.60;99.90;;;;;;4989209;28;20665;-62
2022/01/27 06:25:12;;;;;;;14.07;10.63;;;4.70;99.90;;;;;;4991291;28;20175;-63
2022/01/27 06:27:37;;;;;;;15.90;11.87;;;4.80;99.90;;;;;;4998424;28;20199;-60
2022/01/27 06:30:05;;;;;;;16.30;11.70;;;4.90;99.90;;;;;;4992905;28;20215;-64
2022/01/27 06:32:33;;;;;;;14.83;12.00;;;4.70;99.90;;;;;;4992237;28;20193;-63
2022/01/27 06:34:58;;;;;;;16.50;12.00;;;4.60;99.90;;;;;;4991114;28;20290;-64
2022/01/27 06:37:24;;;;;;;17.27;10.53;;;4.50;99.90;;;;;;4993893;28;20284;-63
2022/01/27 06:39:52;;;;;;;15.87;11.20;;;4.40;99.90;;;;;;4990107;28;20250;-63
2022/01/27 06:42:18;;;;;;;20.47;12.73;;;4.40;99.90;;;;;;4995640;28;20239;-63
2022/01/27 06:44:43;;;;;;;19.13;14.00;;;4.40;99.90;;;;;;4989314;28;20291;-62
2022/01/27 06:47:09;;;;;;;59.87;33.53;;;4.40;99.90;;;;;;4993458;28;20270;-63
2022/01/27 06:49:34;;;;;;;19.77;13.97;;;4.40;99.90;;;;;;4991004;28;20541;-63
2022/01/27 06:52:00;;;;;;;17.63;12.87;;;4.40;99.90;;;;;;4991002;28;20373;-63
2022/01/27 06:54:25;;;;;;;17.80;13.03;;;4.30;99.90;;;;;;4992497;28;20664;-61
2022/01/27 06:56:51;;;;;;;21.30;14.17;;;4.30;99.90;;;;;;4993044;28;20185;-64
2022/01/27 06:59:16;;;;;;;22.70;15.40;;;4.30;99.90;;;;;;4988989;28;20694;-62
2022/01/27 07:01:42;;;;;;;23.00;15.43;;;4.30;99.90;;;;;;4993355;28;20208;-62
2022/01/27 07:04:07;;;;;;;20.57;14.30;;;4.40;99.90;;;;;;4989129;28;20194;-63
2022/01/27 07:06:35;;;;;;;22.37;14.93;;;4.40;99.90;;;;;;4990825;28;20169;-63
2022/01/27 07:09:00;;;;;;;23.23;16.57;;;4.40;99.90;;;;;;4993069;28;20226;-63
2022/01/27 07:11:26;;;;;;;25.13;16.83;;;4.40;99.90;;;;;;4993187;28;20279;-63
2022/01/27 07:13:51;;;;;;;24.73;17.33;;;4.40;99.90;;;;;;4992443;28;20291;-62
2022/01/27 07:16:17;;;;;;;25.77;17.13;;;4.40;99.90;;;;;;4991656;28;20204;-63
2022/01/27 07:18:42;;;;;;;28.40;18.73;;;4.40;99.90;;;;;;4990433;28;20239;-63
2022/01/27 07:21:08;;;;;;;26.70;17.03;;;4.40;99.90;;;;;;4993568;28;20691;-63
2022/01/27 07:23:33;;;;;;;25.57;18.63;;;4.40;99.90;;;;;;4991512;28;20185;-63
2022/01/27 07:25:59;;;;;;;28.83;18.33;;;4.30;99.90;;;;;;4995500;28;20203;-63
2022/01/27 07:28:24;;;;;;;25.37;16.97;;;4.30;99.90;;;;;;4993949;28;20195;-63
2022/01/27 07:30:50;;;;;;;31.37;19.10;;;4.20;99.90;;;;;;4996100;28;20205;-63
2022/01/27 07:33:15;;;;;;;29.80;20.97;;;4.30;99.90;;;;;;4995816;28;20207;-62
2022/01/27 07:35:41;;;;;;;25.90;19.63;;;4.40;99.90;;;;;;4990048;28;20223;-62
2022/01/27 07:38:07;;;;;;;28.67;19.57;;;4.30;99.90;;;;;;4996610;28;20194;-62
2022/01/27 07:40:33;;;;;;;32.83;22.07;;;4.40;99.90;;;;;;4991451;28;20808;-62
2022/01/27 07:42:59;;;;;;;34.63;21.23;;;4.30;99.90;;;;;;4992260;28;20583;-62
2022/01/27 07:45:25;;;;;;;32.43;22.83;;;4.30;99.90;;;;;;4992687;28;20176;-62
2022/01/27 07:47:51;;;;;;;32.27;22.57;;;4.30;99.90;;;;;;4998025;28;20196;-62
2022/01/27 07:50:16;;;;;;;32.17;21.37;;;4.30;99.90;;;;;;4991003;28;20313;-62
2022/01/27 07:52:42;;;;;;;38.47;23.37;;;4.20;99.90;;;;;;4991217;28;21080;-62
2022/01/27 07:55:10;;;;;;;38.77;23.90;;;4.30;99.90;;;;;;4995135;28;20189;-63
2022/01/27 07:57:37;;;;;;;35.47;22.30;;;4.30;99.90;;;;;;4996421;28;20204;-62
2022/01/27 08:00:07;;;;;;;39.83;25.90;;;4.20;99.90;;;;;;4993563;28;20222;-62
2022/01/27 08:02:32;;;;;;;39.93;23.87;;;4.20;99.90;;;;;;4993411;28;20238;-62
2022/01/27 08:04:57;;;;;;;32.57;20.97;;;4.20;99.90;;;;;;4990732;28;20228;-62
2022/01/27 08:07:23;;;;;;;39.10;23.30;;;4.20;99.90;;;;;;5001109;28;20219;-62
2022/01/27 08:09:49;;;;;;;37.83;23.10;;;4.30;99.90;;;;;;4992591;28;20201;-62
2022/01/27 08:12:15;;;;;;;32.63;22.00;;;4.30;99.90;;;;;;4997349;28;20196;-61
2022/01/27 08:14:41;;;;;;;37.50;22.60;;;4.30;99.90;;;;;;4992849;28;20283;-61
2022/01/27 08:17:06;;;;;;;34.03;25.60;;;4.40;99.90;;;;;;4994874;28;20740;-63
2022/01/27 08:19:32;;;;;;;34.37;22.37;;;4.30;99.90;;;;;;4989306;28;20245;-62
2022/01/27 08:21:58;;;;;;;33.63;21.33;;;4.30;99.90;;;;;;4991653;28;20705;-62
2022/01/27 08:24:23;;;;;;;36.40;22.67;;;4.20;99.90;;;;;;4991362;28;20204;-62
2022/01/27 08:26:51;;;;;;;31.07;20.80;;;4.20;99.90;;;;;;5002204;28;20199;-62
2022/01/27 08:29:21;;;;;;;35.37;22.20;;;4.30;99.90;;;;;;4983700;28;20201;-62
2022/01/27 08:34:35;;;;;;;30.67;21.17;;;4.20;99.90;;;;;;4989626;28;20201;-63
2022/01/27 08:37:09;;;;;;;35.63;22.93;;;4.20;99.90;;;;;;5066684;28;20206;-62
2022/01/27 08:39:35;;;;;;;34.90;22.00;;;4.10;99.90;;;;;;4985631;28;20201;-63
2022/01/27 08:42:01;;;;;;;36.93;22.70;;;4.10;99.90;;;;;;4990178;28;20894;-63
2022/01/27 08:44:27;;;;;;;37.10;22.50;;;4.00;99.90;;;;;;4983987;28;20638;-63
2022/01/27 08:46:52;;;;;;;39.93;22.90;;;4.00;99.90;;;;;;4997501;28;20644;-62
2022/01/27 08:49:21;;;;;;;33.73;23.40;;;4.00;99.90;;;;;;4986723;28;20202;-63
2022/01/27 08:51:46;;;;;;;34.57;21.23;;;4.00;99.90;;;;;;4992009;28;20551;-63
2022/01/27 08:54:12;;;;;;;32.53;22.17;;;4.00;99.90;;;;;;4971010;28;20210;-63
2022/01/27 08:56:37;;;;;;;34.83;22.77;;;4.10;99.90;;;;;;5002169;28;20196;-63
2022/01/27 08:59:03;;;;;;;30.70;19.80;;;4.10;99.90;;;;;;4985438;28;20222;-62
2022/01/27 09:01:29;;;;;;;31.13;20.40;;;4.20;99.90;;;;;;5001144;28;20212;-63
2022/01/27 09:03:54;;;;;;;35.70;22.37;;;4.30;99.90;;;;;;4993090;28;20203;-63
2022/01/27 09:06:20;;;;;;;31.27;19.77;;;4.40;99.90;;;;;;4988766;28;20196;-64
2022/01/27 09:08:47;;;;;;;27.73;18.93;;;4.40;99.90;;;;;;4992226;28;20227;-63
2022/01/27 09:11:13;;;;;;;28.10;17.70;;;4.40;99.90;;;;;;4999985;28;20227;-63
2022/01/27 09:13:39;;;;;;;29.73;20.47;;;4.40;99.90;;;;;;4991937;28;20234;-62
2022/01/27 09:16:06;;;;;;;29.50;19.47;;;4.40;99.90;;;;;;4990150;28;20249;-62
2022/01/27 09:18:32;;;;;;;33.23;19.97;;;4.30;99.90;;;;;;4986739;28;20777;-62
2022/01/27 09:21:00;;;;;;;29.77;18.83;;;4.40;99.90;;;;;;4987464;28;20260;-62
2022/01/27 09:23:26;;;;;;;34.37;19.47;;;4.40;99.90;;;;;;4994749;28;20207;-63
2022/01/27 09:25:56;;;;;;;31.43;18.40;;;4.40;99.90;;;;;;4993076;28;20184;-62
2022/01/27 09:28:22;;;;;;;27.37;18.40;;;4.30;99.90;;;;;;4988161;28;20275;-66
2022/01/27 09:30:48;;;;;;;31.40;17.70;;;4.30;99.90;;;;;;4991289;28;20197;-62
2022/01/27 09:33:13;;;;;;;25.23;18.23;;;4.30;99.90;;;;;;4981152;28;20200;-61
2022/01/27 09:35:40;;;;;;;30.83;18.10;;;4.30;99.90;;;;;;4993003;28;20204;-62
2022/01/27 09:38:05;;;;;;;29.03;19.17;;;4.30;99.90;;;;;;5002642;28;20204;-61
2022/01/27 09:40:33;;;;;;;28.33;17.90;;;4.30;99.90;;;;;;4982938;28;20847;-62
2022/01/27 09:43:00;;;;;;;29.43;19.40;;;4.20;99.90;;;;;;4993296;28;20199;-62
2022/01/27 09:45:27;;;;;;;27.47;16.60;;;4.30;99.90;;;;;;4983832;28;20298;-62
2022/01/27 09:47:55;;;;;;;30.17;17.63;;;4.30;99.90;;;;;;4996686;28;20566;-63
2022/01/27 09:50:47;;;;;;;25.80;17.53;;;4.30;99.90;;;;;;4990498;28;20287;-62
2022/01/27 09:53:14;;;;;;;26.57;18.17;;;4.20;99.90;;;;;;5017252;28;20184;-62
2022/01/27 09:55:40;;;;;;;31.60;18.23;;;4.30;99.90;;;;;;4992275;28;20200;-62
2022/01/27 09:58:07;;;;;;;25.97;17.40;;;4.10;99.90;;;;;;4974526;28;20271;-62
2022/01/27 10:00:33;;;;;;;26.97;15.73;;;4.10;99.90;;;;;;4993996;28;20221;-62
2022/01/27 10:03:12;;;;;;;25.60;16.50;;;4.00;99.90;;;;;;4991379;28;20198;-63
2022/01/27 10:05:39;;;;;;;24.23;16.93;;;4.00;99.90;;;;;;4990667;28;20264;-63
2022/01/27 10:08:11;;;;;;;28.97;17.80;;;4.00;99.90;;;;;;4989155;28;20666;-63
2022/01/27 10:10:42;;;;;;;27.57;17.90;;;4.00;99.90;;;;;;4985625;28;20223;-61
2022/01/27 10:13:31;;;;;;;30.70;19.17;;;4.00;99.90;;;;;;4991620;28;20370;-62
2022/01/27 10:15:57;;;;;;;26.60;18.13;;;3.90;99.90;;;;;;4981383;28;20616;-62
2022/01/27 10:18:25;;;;;;;27.67;15.40;;;3.90;99.90;;;;;;4994185;28;20238;-62
2022/01/27 10:21:05;;;;;;;23.77;16.07;;;3.90;99.90;;;;;;4987062;28;20314;-61
2022/01/27 10:23:33;;;;;;;25.67;16.80;;;3.90;99.90;;;;;;4994992;28;20290;-62
2022/01/27 10:26:10;;;;;;;28.20;16.90;;;3.80;99.90;;;;;;4988053;28;20726;-62
2022/01/27 10:28:50;;;;;;;25.43;17.83;;;3.80;99.90;;;;;;4981466;28;20561;-61
2022/01/27 10:31:19;;;;;;;29.93;18.43;;;3.70;99.90;;;;;;4994567;28;20200;-61
2022/01/27 10:33:51;;;;;;;29.10;18.00;;;3.80;99.90;;;;;;4993063;28;20216;-61
2022/01/27 10:36:22;;;;;;;30.33;18.37;;;3.80;99.90;;;;;;4990368;28;20214;-61
2022/01/27 10:39:01;;;;;;;28.93;16.47;;;3.70;99.90;;;;;;4984989;28;20208;-61
2022/01/27 10:41:29;;;;;;;30.63;18.13;;;3.80;99.90;;;;;;4995410;28;20592;-61
2022/01/27 10:44:08;;;;;;;30.93;18.67;;;3.80;99.90;;;;;;4993195;28;20197;-61
2022/01/27 10:46:34;;;;;;;35.40;19.47;;;3.80;99.90;;;;;;4991113;28;20189;-61
2022/01/27 10:49:09;;;;;;;36.63;19.20;;;3.80;99.90;;;;;;4989869;28;20758;-61
2022/01/27 10:51:46;;;;;;;32.37;20.13;;;3.70;99.90;;;;;;4986313;28;20191;-62
2022/01/27 10:54:24;;;;;;;32.37;21.53;;;3.80;99.90;;;;;;4968327;28;20211;-63
2022/01/27 10:56:50;;;;;;;31.23;17.80;;;3.80;99.90;;;;;;4971146;28;20736;-62
2022/01/27 10:59:18;;;;;;;31.20;18.87;;;3.70;99.90;;;;;;4992499;28;20246;-62
2022/01/27 11:01:48;;;;;;;32.17;20.03;;;3.80;99.90;;;;;;4990761;28;20216;-64
2022/01/27 11:04:17;;;;;;;28.50;19.67;;;3.80;99.90;;;;;;4984356;28;20197;-62
2022/01/27 11:06:57;;;;;;;33.30;19.63;;;3.90;99.90;;;;;;5002098;28;20211;-63
2022/01/27 11:09:24;;;;;;;35.53;21.80;;;3.80;99.90;;;;;;4994719;28;20203;-63
2022/01/27 11:11:52;;;;;;;34.67;19.50;;;3.90;99.90;;;;;;4989893;28;20345;-67
2022/01/27 11:14:19;;;;;;;27.67;18.10;;;3.90;99.90;;;;;;4995077;28;20248;-62
2022/01/27 11:16:48;;;;;;;38.60;21.60;;;3.90;99.90;;;;;;4987027;28;20204;-67
2022/01/27 11:19:20;;;;;;;35.40;18.83;;;4.00;99.90;;;;;;4995759;28;20671;-75
2022/01/27 11:21:50;;;;;;;31.90;20.90;;;4.10;99.90;;;;;;4978341;28;20212;-78
2022/01/27 11:24:27;;;;;;;28.27;18.90;;;4.10;99.90;;;;;;4987479;28;20280;-71
2022/01/27 11:26:56;;;;;;;31.83;19.77;;;4.10;99.90;;;;;;4988656;28;20945;-69
2022/01/27 11:29:23;;;;;;;30.33;18.93;;;4.10;99.90;;;;;;5000347;28;20191;-69
2022/01/27 11:32:14;;;;;;;31.07;19.33;;;4.20;99.90;;;;;;4996241;28;20290;-69
2022/01/27 11:34:45;;;;;;;31.80;18.03;;;4.20;99.90;;;;;;4990994;28;20292;-68
2022/01/27 11:37:10;;;;;;;31.73;17.07;;;4.30;99.90;;;;;;4987755;28;20291;-76
2022/01/27 11:39:56;;;;;;;30.80;15.77;;;4.20;99.90;;;;;;4988641;28;20849;-76
2022/01/27 11:42:42;;;;;;;26.03;16.37;;;4.10;99.90;;;;;;4970396;28;20294;-74
2022/01/27 11:45:23;;;;;;;31.73;18.07;;;4.00;99.90;;;;;;4961421;28;20202;-75
2022/01/27 11:47:54;;;;;;;24.60;15.97;;;4.10;99.90;;;;;;4969436;28;20288;-73
2022/01/27 11:50:33;;;;;;;30.00;18.90;;;4.10;99.90;;;;;;4969574;28;20685;-75
2022/01/27 11:53:01;;;;;;;27.17;17.17;;;4.10;99.90;;;;;;4964023;28;20216;-76
2022/01/27 11:55:26;;;;;;;25.53;14.73;;;4.10;99.90;;;;;;4970937;28;20257;-81
2022/01/27 11:57:59;;;;;;;24.53;18.53;;;4.20;99.90;;;;;;5003624;28;20208;-76
2022/01/27 12:00:30;;;;;;;31.10;18.50;;;4.20;99.90;;;;;;4980659;28;20235;-77
2022/01/27 12:03:02;;;;;;;28.27;16.53;;;4.10;99.90;;;;;;4977396;28;20284;-77
2022/01/27 12:05:39;;;;;;;26.30;17.30;;;4.10;99.90;;;;;;4967175;28;20663;-76
2022/01/27 12:08:14;;;;;;;24.70;16.07;;;4.10;99.90;;;;;;4971986;28;20186;-73
2022/01/27 12:10:52;;;;;;;28.27;16.53;;;4.10;99.90;;;;;;4976057;28;20631;-75
2022/01/27 12:19:02;;;;;;;32.10;17.47;;;4.20;99.90;;;;;;4970497;28;20229;-74
2022/01/27 12:21:40;;;;;;;32.77;18.07;;;4.20;99.90;;;;;;4978639;28;20251;-76
2022/01/27 12:24:12;;;;;;;27.07;17.13;;;4.10;99.90;;;;;;4976804;28;20215;-77
2022/01/27 12:26:52;;;;;;;33.17;16.97;;;4.10;99.90;;;;;;4976123;28;20229;-76
2022/01/27 12:29:35;;;;;;;26.97;16.13;;;4.10;99.90;;;;;;4960496;28;20205;-75
2022/01/27 12:32:06;;;;;;;26.13;16.73;;;4.10;99.90;;;;;;4982773;28;20203;-75
2022/01/27 12:34:33;;;;;;;29.43;16.43;;;4.10;99.90;;;;;;4979022;28;20317;-77
2022/01/27 12:37:11;;;;;;;26.60;17.87;;;4.20;99.90;;;;;;4970116;28;20709;-76
2022/01/27 12:39:40;;;;;;;29.63;15.83;;;4.20;99.90;;;;;;4963231;28;20213;-73
2022/01/27 12:42:16;;;;;;;28.63;16.47;;;4.20;99.90;;;;;;4988420;28;20224;-75
2022/01/27 12:44:55;;;;;;;24.60;16.03;;;4.20;99.90;;;;;;4983570;28;20692;-75
2022/01/27 12:47:21;;;;;;;28.83;14.47;;;4.30;99.90;;;;;;4996545;28;20241;-75
2022/01/27 12:50:01;;;;;;;20.57;14.70;;;4.30;99.90;;;;;;4986650;28;20212;-76
2022/01/27 12:52:29;;;;;;;24.30;13.70;;;4.40;99.90;;;;;;4965389;28;20677;-77
2022/01/27 12:55:03;;;;;;;20.97;14.03;;;4.30;99.90;;;;;;4975890;28;20210;-79
2022/01/27 12:57:30;;;;;;;23.17;15.07;;;4.40;99.90;;;;;;4989443;28;20192;-77
2022/01/27 12:59:57;;;;;;;23.77;14.63;;;4.30;99.90;;;;;;4989654;28;20187;-72
2022/01/27 13:02:24;;;;;;;25.67;14.67;;;4.40;99.90;;;;;;4997415;28;20244;-76
2022/01/27 13:04:54;;;;;;;26.90;14.50;;;4.40;99.90;;;;;;4981828;28;21102;-75
2022/01/27 13:07:21;;;;;;;17.50;12.70;;;4.30;99.90;;;;;;4999842;28;20288;-76
2022/01/27 13:10:12;;;;;;;21.13;14.73;;;4.50;99.90;;;;;;4997842;28;20291;-72
2022/01/27 13:12:48;;;;;;;24.50;13.07;;;4.50;99.90;;;;;;4988133;28;20188;-72
2022/01/27 13:15:22;;;;;;;21.53;13.97;;;4.60;99.90;;;;;;4993251;28;20246;-70
2022/01/27 13:17:54;;;;;;;20.97;11.47;;;4.60;99.90;;;;;;4990856;28;20212;-72
2022/01/27 13:20:28;;;;;;;20.07;11.53;;;4.60;99.90;;;;;;4992071;28;20207;-76
2022/01/27 13:22:58;;;;;;;19.97;11.23;;;4.70;99.90;;;;;;4983260;28;20215;-76
2022/01/27 13:25:35;;;;;;;18.20;11.40;;;4.90;99.90;;;;;;4997945;28;20271;-78
2022/01/27 13:28:09;;;;;;;15.53;10.50;;;4.90;99.90;;;;;;5045165;28;20685;-76